Latest Weather Observations for Macquarie Island

IDT60801

Issued at 3:01 pm EDT Wednesday 20 January 2021 (issued every 10 minutes, with the page automatically refreshed every 10 minutes)

About weather observations | Map of weather stations | Latest weather observations for TAS | Other Formats
Station Details ID: 300004 Name: MACQUARIE ISLAND Lat: -54.50 Lon: 158.94 Height: 6.0 m
Data from the previous 72 hours. | See also: Recent months at Macquarie Island
Date/Time
EDT
Temp
°C
App
Temp
°C
Dew
Point
°C
Rel
Hum
%
Delta-T
°C
Wind Press
QNH
hPa
Press
MSL
hPa
Rain since
9am
mm
Dir  Spd
km/h
Gust
km/h
Spd
kts
Gust
kts
20/03:00pm 5.3 -4.4 0.7 72 1.8 S 41 54 22 29 1002.9 1003.2 0.0
20/02:30pm 5.5 -4.4 1.4 75 1.6 S 43 54 23 29 1003.1 - 0.0
20/02:00pm 5.4 -4.6 1.0 73 1.7 S 43 50 23 27 1003.2 - 0.0
20/01:30pm 5.4 -4.6 1.1 74 1.7 S 43 54 23 29 1003.0 - 0.0
20/01:00pm 5.4 -4.8 1.0 73 1.7 S 44 54 24 29 1003.3 - 0.0
20/12:30pm 5.1 -5.0 0.5 72 1.8 S 43 54 23 29 1003.5 - 0.0
20/12:00pm 5.2 -5.5 0.2 70 1.9 S 46 56 25 30 1003.7 1004.0 0.0
20/11:30am 5.2 -5.1 0.4 71 1.8 S 44 56 24 30 1003.9 - 0.0
20/11:00am 5.0 -5.3 0.6 73 1.7 S 44 57 24 31 1003.6 - 0.0
20/10:30am 5.2 -4.9 0.4 71 1.8 S 43 54 23 29 1003.6 - 0.0
20/10:00am 5.2 -4.9 0.6 72 1.8 S 43 54 23 29 1003.9 - 0.0
20/09:30am 5.1 -5.2 0.5 72 1.8 S 44 56 24 30 1003.9 - 0.0
20/09:00am 5.0 -5.3 0.4 72 1.8 S 44 54 24 29 1004.1 1004.4 0.0
20/08:30am 5.2 -4.8 1.1 75 1.6 S 43 57 23 31 1004.0 - 0.0
20/08:12am 4.7 -6.0 -0.1 71 1.8 S 46 65 25 35 1003.8 - 0.0
20/08:00am 4.7 -5.4 0.1 72 1.7 S 43 57 23 31 1003.7 - 0.0
20/07:30am 4.4 -4.3 -0.2 72 1.7 S 35 57 19 31 1003.9 - 0.0
20/07:25am 4.3 -5.2 -0.5 71 1.8 S 39 57 21 31 1003.9 - 0.0
20/07:00am 4.4 -6.1 -0.8 69 1.9 S 44 59 24 32 1003.5 - 0.0
20/06:49am 4.6 -5.2 -0.4 70 1.9 S 41 63 22 34 1003.3 - 0.0
20/06:30am 4.5 -5.7 -0.1 72 1.7 S 43 57 23 31 1003.2 - 0.0
20/06:16am 4.3 -6.1 -0.5 71 1.8 S 44 65 24 35 1003.1 - 0.0
20/06:00am 4.3 -6.1 -0.3 72 1.7 S 44 57 24 31 1003.1 1003.4 0.0
20/05:30am 4.2 -6.1 -1.0 69 1.9 S 43 54 23 29 1002.9 - 0.0
20/05:00am 4.1 -4.6 -0.7 71 1.8 S 35 54 19 29 1002.9 - 0.0
20/04:41am 4.0 -5.2 -1.4 68 2.0 S 37 56 20 30 1002.7 - 0.0
20/04:30am 4.4 -6.0 -0.4 71 1.8 S 44 59 24 32 1002.5 - 0.0
20/04:01am 4.3 -5.2 -0.7 70 1.9 S 39 59 21 32 1002.0 - 0.0
20/04:00am 4.3 -4.8 -0.5 71 1.8 S 37 52 20 28 1002.0 - 0.0
20/03:44am 4.3 -4.4 -0.7 70 1.9 S 35 54 19 29 1001.9 - 0.0
20/03:30am 4.2 -5.3 -1.0 69 1.9 S 39 54 21 29 1001.9 - 0.0
20/03:16am 4.3 -6.8 -0.3 72 1.7 S 48 67 26 36 1001.5 - 0.0
20/03:00am 4.4 -7.0 0.4 75 1.5 S 50 65 27 35 1001.1 1001.4 0.0
20/02:45am 4.7 -6.6 1.2 78 1.4 S 50 69 27 37 1001.1 - 0.0
20/02:30am 4.6 -7.5 0.9 77 1.4 S 54 69 29 37 1001.1 - 0.0
20/02:05am 4.3 -6.8 0.1 74 1.6 S 48 67 26 36 1001.0 - 0.0
20/02:00am 4.2 -6.5 0.0 74 1.6 S 46 63 25 34 1001.1 - 0.0
20/01:42am 4.3 -6.0 0.3 75 1.5 S 44 63 24 34 1001.0 - 0.0
20/01:30am 4.3 -6.4 0.1 74 1.6 S 46 61 25 33 1000.9 - 0.0
20/01:18am 4.2 -6.6 -0.2 73 1.6 S 46 65 25 35 1001.0 - 0.0
20/01:00am 4.3 -6.9 -0.5 71 1.8 S 48 65 26 35 1000.8 - 0.0
20/12:30am 4.5 -8.1 -0.1 72 1.7 S 56 69 30 37 1000.6 - 0.0
20/12:03am 4.5 -7.0 0.1 73 1.7 S 50 69 27 37 1000.4 - 0.0
20/12:00am 4.4 -7.1 0.2 74 1.6 S 50 65 27 35 1000.4 1000.7 0.0
 
Date/Time
EDT
Temp
°C
App
Temp
°C
Dew
Point
°C
Rel
Hum
%
Delta-T
°C
Wind Press
QNH
hPa
Press
MSL
hPa
Rain since
9am
mm
Dir  Spd
km/h
Gust
km/h
Spd
kts
Gust
kts
19/11:49pm 4.6 -5.7 0.6 75 1.5 S 44 63 24 34 1000.3 - 0.0
19/11:30pm 4.5 -6.9 0.5 75 1.5 S 50 67 27 36 1000.0 - 0.0
19/11:00pm 4.7 -7.4 0.7 75 1.5 S 54 63 29 34 999.4 - 0.0
19/10:30pm 4.6 -6.9 0.2 73 1.7 S 50 63 27 34 999.3 - 0.0
19/10:00pm 4.6 -7.2 0.6 75 1.5 S 52 65 28 35 998.9 - 0.0
19/09:30pm 5.0 -7.0 1.5 78 1.4 S 54 65 29 35 998.7 - 0.0
19/09:00pm 4.9 -6.8 0.9 75 1.6 S 52 67 28 36 998.6 998.9 0.0
19/08:30pm 4.8 -6.6 0.8 75 1.5 S 50 70 27 38 998.1 - 0.0
19/08:00pm 4.8 -5.5 0.2 72 1.8 S 44 63 24 34 997.6 - 0.0
19/07:31pm 4.8 -4.9 0.2 72 1.8 S 41 59 22 32 997.2 - 0.0
19/07:30pm 4.8 -5.4 0.0 71 1.8 S 43 59 23 32 997.1 - 0.0
19/07:06pm 4.9 -6.5 0.3 72 1.8 S 50 69 27 37 996.3 - 0.0
19/07:00pm 5.0 -6.5 0.2 71 1.8 S 50 65 27 35 996.2 - 0.0
19/06:30pm 4.8 -5.5 0.6 74 1.6 S 44 65 24 35 995.6 - 0.0
19/06:11pm 4.8 -5.3 0.2 72 1.8 S 43 61 23 33 995.1 - 0.0
19/06:00pm 4.7 -6.7 0.7 75 1.6 S 50 67 27 36 994.7 995.0 0.0
19/05:31pm 4.9 -6.2 -0.3 69 2.0 S 48 69 26 37 994.3 - 0.0
19/05:30pm 4.9 -6.2 -0.1 70 1.9 S 48 65 26 35 994.3 - 0.0
19/05:01pm 4.9 -6.6 0.1 71 1.8 S 50 69 27 37 994.0 - 0.0
19/05:00pm 4.9 -7.0 -0.1 70 1.9 S 52 69 28 37 994.0 - 0.0
19/04:31pm 5.1 -6.2 0.9 74 1.6 S 50 69 27 37 993.4 - 0.0
19/04:30pm 5.0 -6.4 0.4 72 1.8 S 50 67 27 36 993.4 - 0.0
19/04:00pm 5.0 -6.5 -0.4 68 2.0 S 50 69 27 37 993.0 - 0.0
19/03:30pm 5.0 -6.2 -0.4 68 2.0 S 48 67 26 36 992.4 - 0.0
19/03:25pm 5.2 -5.9 0.0 69 2.0 S 48 67 26 36 992.5 - 0.0
19/03:00pm 5.0 -7.2 0.0 70 1.9 S 54 69 29 37 992.5 992.8 0.0
19/02:30pm 4.8 -8.1 -0.8 67 2.1 S 57 70 31 38 991.8 - 0.0
19/02:02pm 5.2 -6.5 0.8 73 1.7 S 52 70 28 38 991.6 - 0.0
19/02:00pm 5.0 -7.2 0.2 71 1.8 S 54 70 29 38 991.5 - 0.0
19/01:32pm 4.9 -6.3 -0.7 67 2.1 S 48 67 26 36 991.1 - 0.0
19/01:30pm 5.0 -6.5 -0.4 68 2.0 S 50 67 27 36 991.1 - 0.0
19/01:01pm 5.1 -5.7 -0.3 68 2.0 S 46 65 25 35 990.9 - 0.0
19/01:00pm 5.0 -6.2 -0.4 68 2.0 S 48 65 26 35 990.9 - 0.0
19/12:30pm 4.3 -7.0 -1.3 67 2.0 S 48 67 26 36 990.8 - 0.0
19/12:00pm 3.6 -5.0 0.3 79 1.3 S 35 50 19 27 990.9 991.2 0.0
19/11:43am 3.6 -7.7 1.3 85 0.9 S 50 69 27 37 991.0 - 0.0
19/11:30am 5.1 -6.2 1.0 75 1.6 S 50 61 27 33 990.2 - 0.0
19/11:00am 5.1 -5.8 -0.9 65 2.2 S 46 61 25 33 989.9 - 0.0
19/10:30am 5.0 -5.7 0.0 70 1.9 S 46 59 25 32 989.6 - 0.0
19/10:23am 5.0 -4.7 0.2 71 1.8 S 41 59 22 32 989.5 - 0.0
19/10:00am 5.0 -4.5 -0.6 67 2.1 S 39 56 21 30 989.1 - 0.0
19/09:30am 5.3 -4.7 0.7 72 1.8 S 43 59 23 32 988.5 - 0.0
19/09:00am 5.0 -5.8 -0.2 69 2.0 S 46 59 25 32 987.8 988.1 2.0
19/08:30am 4.8 -6.5 -1.2 65 2.2 S 48 65 26 35 987.1 - 2.0
19/08:00am 4.8 -7.1 -0.6 68 2.0 S 52 67 28 36 987.0 - 2.0
19/07:36am 4.6 -5.8 -0.4 70 1.9 S 44 63 24 34 986.8 - 2.0
19/07:30am 4.4 -6.4 -0.4 71 1.8 S 46 59 25 32 986.8 - 2.0
19/07:00am 4.5 -6.6 -0.3 71 1.8 S 48 61 26 33 986.5 - 2.0
19/06:30am 4.3 -6.5 -0.5 71 1.8 S 46 57 25 31 986.3 - 2.0
19/06:00am 4.4 -6.6 0.6 76 1.5 S 48 61 26 33 985.6 985.9 2.0
19/05:49am 4.3 -6.0 0.6 77 1.4 S 44 65 24 35 985.2 - 2.0
19/05:30am 4.2 -6.4 0.7 78 1.3 S 46 61 25 33 984.8 - 2.0
19/05:13am 4.4 -6.2 1.1 79 1.3 S 46 65 25 35 984.5 - 2.0
19/05:00am 4.4 -6.1 1.3 80 1.2 S 46 57 25 31 984.5 - 1.8
19/04:30am 4.4 -6.1 1.6 82 1.1 SSE 46 56 25 30 984.0 - 1.8
19/04:00am 4.5 -3.3 1.4 80 1.2 S 32 44 17 24 984.0 - 1.8
19/03:30am 3.5 -4.4 1.2 85 0.9 S 32 43 17 23 983.6 - 1.8
19/03:02am 3.5 -4.4 1.2 85 0.9 S 32 50 17 27 983.1 - 1.8
19/03:00am 3.4 -4.7 1.1 85 0.9 S 33 50 18 27 983.1 983.4 1.8
19/02:30am 4.4 -3.1 1.3 80 1.2 S 30 43 16 23 982.9 - 1.8
19/02:00am 3.8 -4.1 1.0 82 1.1 S 32 41 17 22 983.1 - 1.6
19/01:30am 4.5 -3.4 1.2 79 1.3 S 32 41 17 22 982.9 - 1.6
19/01:00am 4.7 -3.3 1.7 81 1.2 SSE 33 41 18 22 982.6 - 1.4
19/12:30am 4.0 -3.4 1.7 85 0.9 SSE 30 37 16 20 982.1 - 1.4
19/12:00am 3.4 -3.6 1.8 89 0.6 S 28 35 15 19 982.1 982.4 1.2
 
Date/Time
EDT
Temp
°C
App
Temp
°C
Dew
Point
°C
Rel
Hum
%
Delta-T
°C
Wind Press
QNH
hPa
Press
MSL
hPa
Rain since
9am
mm
Dir  Spd
km/h
Gust
km/h
Spd
kts
Gust
kts
18/11:30pm 4.3 -1.1 2.5 88 0.7 S 20 26 11 14 981.8 - 1.0
18/11:00pm 4.3 0.2 2.3 87 0.8 S 13 17 7 9 981.8 - 0.6
18/10:30pm 4.5 -2.8 2.2 85 0.9 S 30 35 16 19 981.5 - 0.4
18/10:00pm 4.8 -1.5 1.6 80 1.3 S 24 28 13 15 981.0 - 0.4
18/09:30pm 5.0 -1.2 2.0 81 1.2 S 24 32 13 17 980.7 - 0.4
18/09:00pm 5.2 -0.7 1.7 78 1.4 S 22 28 12 15 980.5 980.8 0.4
18/08:30pm 5.3 -0.6 2.0 79 1.3 S 22 26 12 14 980.5 - 0.4
18/08:00pm 5.4 -0.1 1.9 78 1.4 SSE 20 24 11 13 980.3 - 0.4
18/07:30pm 5.5 0.2 1.8 77 1.5 SSE 19 24 10 13 979.8 - 0.4
18/07:00pm 5.9 2.5 1.8 75 1.6 SSW 9 15 5 8 979.4 - 0.4
18/06:30pm 6.0 2.2 1.7 74 1.7 S 11 19 6 10 979.2 - 0.4
18/06:00pm 5.7 0.3 1.4 74 1.7 SW 19 24 10 13 979.1 979.4 0.4
18/05:30pm 7.6 2.7 1.9 67 2.3 W 17 22 9 12 978.8 - 0.4
18/05:00pm 7.6 3.2 2.7 71 2.0 W 15 22 8 12 979.0 - 0.4
18/04:30pm 6.6 1.7 2.1 73 1.8 W 17 26 9 14 979.0 - 0.4
18/04:00pm 7.7 2.9 2.6 70 2.1 W 17 22 9 12 978.9 - 0.4
18/03:30pm 7.0 1.6 2.3 72 1.9 W 20 33 11 18 978.7 - 0.4
18/03:00pm 8.3 2.3 3.4 71 2.1 W 24 32 13 17 978.6 978.9 0.4
18/02:30pm 8.1 0.7 3.8 74 1.9 W 32 39 17 21 978.5 - 0.4
18/02:00pm 6.1 -0.7 3.3 82 1.2 W 28 43 15 23 978.4 - 0.4
18/01:30pm 7.9 0.9 3.9 76 1.7 W 30 39 16 21 978.3 - 0.2
18/01:00pm 7.0 -0.9 2.1 71 2.0 W 33 41 18 22 978.2 - 0.2
18/12:30pm 7.1 -1.4 3.2 76 1.6 W 37 48 20 26 978.1 - 0.2
18/12:00pm 7.6 -0.8 3.8 77 1.7 W 37 46 20 25 978.4 978.7 0.2
18/11:30am 6.3 -2.6 3.3 81 1.3 W 39 50 21 27 977.9 - 0.2
18/11:00am 6.0 -3.0 2.3 77 1.5 W 39 54 21 29 977.7 - 0.2
18/10:30am 6.2 -3.6 3.2 81 1.3 W 44 56 24 30 977.4 - 0.0
18/10:00am 6.5 -3.4 2.9 78 1.5 W 44 54 24 29 977.2 - 0.0
18/09:30am 6.3 -3.8 3.8 84 1.1 W 46 56 25 30 976.9 - 0.0
18/09:00am 5.6 -4.1 3.1 84 1.1 W 43 50 23 27 976.7 977.0 21.6
18/08:30am 6.7 -3.0 4.0 83 1.2 W 44 56 24 30 976.5 - 21.6
18/08:00am 5.7 -5.2 3.5 86 0.9 W 50 61 27 33 976.3 - 21.6
18/07:30am 5.6 -4.8 4.1 90 0.6 W 48 61 26 33 976.0 - 21.6
18/07:00am 6.6 -3.8 4.1 84 1.1 W 48 57 26 31 975.5 - 21.4
18/06:30am 6.2 -5.0 4.0 86 0.9 W 52 65 28 35 975.1 - 21.4
18/06:00am 5.9 -6.7 3.4 84 1.1 W 59 74 32 40 974.8 975.1 21.4
18/05:30am 6.1 -5.8 4.1 87 0.9 W 56 65 30 35 974.2 - 21.4
18/05:00am 6.0 -6.1 4.2 88 0.8 W 57 76 31 41 973.8 - 21.4
18/04:59am 5.9 -6.3 3.9 87 0.8 W 57 76 31 41 973.8 - 21.4
18/04:30am 5.8 -6.3 4.3 90 0.6 W 57 69 31 37 973.3 - 21.2
18/04:00am 5.6 -6.6 3.9 89 0.7 W 57 70 31 38 973.1 - 21.2
18/03:30am 5.0 -7.7 3.2 88 0.7 W 59 80 32 43 972.7 - 20.8
18/03:27am 5.4 -7.1 3.9 90 0.6 W 59 78 32 42 972.6 - 20.8
18/03:00am 5.6 -6.4 3.9 89 0.7 W 56 69 30 37 972.1 972.4 20.6
18/02:30am 5.4 -6.8 3.9 90 0.6 W 57 70 31 38 971.9 - 20.2
18/02:00am 5.3 -6.9 3.8 90 0.6 W 57 70 31 38 971.5 - 20.2
18/01:50am 5.1 -7.1 3.6 90 0.6 W 57 76 31 41 971.5 - 20.0
18/01:30am 5.3 -6.7 4.0 91 0.5 W 56 69 30 37 971.1 - 19.8
18/01:11am 5.2 -6.8 3.9 91 0.5 W 56 74 30 40 970.9 - 19.6
18/01:00am 5.3 -6.9 3.8 90 0.6 W 57 69 31 37 970.8 - 19.4
18/12:30am 5.2 -6.4 4.0 92 0.5 W 54 65 29 35 970.5 - 19.2
18/12:04am 5.2 -5.6 3.9 91 0.5 W 50 70 27 38 970.2 - 19.0
18/12:00am 5.3 -5.1 4.0 91 0.6 W 48 63 26 34 970.3 970.6 19.0
 
Date/Time
EDT
Temp
°C
App
Temp
°C
Dew
Point
°C
Rel
Hum
%
Delta-T
°C
Wind Press
QNH
hPa
Press
MSL
hPa
Rain since
9am
mm
Dir  Spd
km/h
Gust
km/h
Spd
kts
Gust
kts
17/11:30pm 5.1 -6.5 3.8 91 0.5 W 54 67 29 36 969.9 - 18.8
17/11:00pm 5.3 -6.6 4.1 92 0.5 W 56 65 30 35 969.8 - 18.4
17/10:30pm 5.4 -5.4 4.1 91 0.6 W 50 67 27 36 969.6 - 17.6
17/10:01pm 5.3 -5.1 4.0 91 0.5 W 48 67 26 36 969.5 - 17.0
17/10:00pm 5.3 -5.5 4.0 91 0.5 W 50 67 27 36 969.3 - 17.0
17/09:43pm 5.4 -5.4 3.9 90 0.6 W 50 69 27 37 969.5 - 16.6
17/09:30pm 5.7 -5.1 4.3 91 0.6 W 50 65 27 35 969.4 - 16.4
17/09:00pm 5.6 -6.3 4.1 90 0.7 W 56 67 30 36 969.2 969.5 16.4
17/08:30pm 5.6 -5.2 4.1 90 0.6 W 50 76 27 41 968.9 - 16.0
17/08:00pm 5.7 -5.5 4.2 90 0.6 W 52 78 28 42 968.9 - 15.8
17/07:30pm 5.8 -4.6 4.4 91 0.6 W 48 82 26 44 968.4 - 15.4
17/07:00pm 5.5 -6.1 3.8 89 0.7 W 54 80 29 43 968.1 - 15.2
17/06:30pm 5.6 -5.2 4.2 91 0.6 W 50 76 27 41 968.4 - 15.2
17/06:00pm 5.8 -4.9 4.6 92 0.5 W 50 76 27 41 968.0 968.3 15.0
17/05:30pm 5.9 -3.1 4.7 92 0.5 W 41 76 22 41 968.2 - 14.6
17/05:16pm 5.9 -3.5 4.7 92 0.5 W 43 91 23 49 968.3 - 14.4
17/05:00pm 6.0 -3.0 4.8 92 0.5 W 41 65 22 35 968.6 - 14.2
17/04:47pm 6.1 -1.7 4.9 92 0.5 W 35 74 19 40 968.6 - 13.8
17/04:30pm 6.2 -1.0 5.0 92 0.5 WSW 32 52 17 28 968.7 - 13.0
17/04:05pm 6.1 -1.3 4.9 92 0.5 WSW 33 57 18 31 969.1 - 11.8
17/04:00pm 6.2 -0.2 5.2 93 0.4 WSW 28 43 15 23 969.0 - 11.6
17/03:35pm 6.1 -0.4 4.9 92 0.5 W 28 46 15 25 969.3 - 10.2
17/03:32pm 6.2 0.5 5.0 92 0.5 W 24 37 13 20 969.2 - 10.0
17/03:30pm 6.2 -2.7 5.0 92 0.5 WSW 41 65 22 35 969.3 - 10.0

Other formats

Comma delimited format used in spreadsheet applications
http://www.bom.gov.au/fwo/IDT60801/IDT60801.94998.axf

JavaScript Object Notation format (JSON) in row-major order
http://www.bom.gov.au/fwo/IDT60801/IDT60801.94998.json

Data quality

Most of these data are generated automatically and are frequently updated. Quality checks on data are not normally performed. It is possible for incorrect values to appear. Refer to information at About Latest Weather Observations and please check the disclaimer before using these data.